This is the latest recevied weather packets stored in our database for station/object IT9CYW-10. If no packets are shown the sender has not sent any weather packets the latest 10 day(s).
| Time | Temp. | Humidity | Pressure | Rain* | Wind** | Luminosity | Snow |
|---|---|---|---|---|---|---|---|
| 1777885093 | 22.22° C | 46% | 1000.4 hPa | - | - | 773 W/m² | - |
| 1777884193 | 21.67° C | 46% | 1000.7 hPa | - | - | 745 W/m² | - |
| 1777883293 | 22.22° C | 42% | 1000.5 hPa | - | - | 705 W/m² | - |
| 1777882393 | 21.11° C | 44% | 1000.7 hPa | - | - | 661 W/m² | - |
| 1777881493 | 20.56° C | 46% | 1000.7 hPa | - | - | 612 W/m² | - |
| 1777880593 | 20° C | 47% | 1000.7 hPa | - | - | 569 W/m² | - |
| 1777879692 | 20° C | 46% | 1000.7 hPa | - | - | 442 W/m² | - |
| 1777878792 | 19.44° C | 49% | 1000.5 hPa | - | - | 475 W/m² | - |
| 1777877892 | 18.33° C | 49% | 1000.5 hPa | - | - | 309 W/m² | - |
| 1777876992 | 17.78° C | 57% | 1000.5 hPa | - | - | 383 W/m² | - |
| 1777876092 | 17.22° C | 59% | 1000.5 hPa | - | - | 142 W/m² | - |
| 1777875192 | 17.22° C | 60% | 1000.7 hPa | - | - | 230 W/m² | - |
| 1777874292 | 17.22° C | 64% | 1000.7 hPa | - | - | 150 W/m² | - |
| 1777873392 | 15° C | 74% | 1000.7 hPa | - | - | 171 W/m² | - |
| 1777871595 | 11.67° C | 79% | 1000.7 hPa | - | - | 69 W/m² | - |
| 1777870695 | 11.11° C | 80% | 1000.7 hPa | - | - | 53 W/m² | - |
| 1777869795 | 10.56° C | 81% | 1000.5 hPa | - | - | 29 W/m² | - |
| 1777868895 | 10.56° C | 79% | 1000.5 hPa | - | - | 13 W/m² | - |
| 1777867995 | 10.56° C | 78% | 1000.2 hPa | - | - | 4 W/m² | - |
| 1777867095 | 10° C | 80% | 1000.2 hPa | - | - | 0 W/m² | - |
| 1777866195 | 10.56° C | 79% | 1000.2 hPa | - | - | 0 W/m² | - |
| 1777865295 | 11.11° C | 76% | 1000.2 hPa | - | - | 0 W/m² | - |
| 1777864395 | 11.11° C | 77% | 1000.2 hPa | - | - | 0 W/m² | - |
| 1777863494 | 11.11° C | 77% | 1000.2 hPa | - | - | 0 W/m² | - |
| 1777862594 | 10.56° C | 78% | 1000.4 hPa | - | - | 0 W/m² | - |
* Rain since midnight (hover to see other rain measurements)
** Current wind speed in m/s (hover to see current wind gust speed)